createdAt,value
2023-02-05T00:00:20.762Z,7.00
2023-02-05T00:03:09.149Z,6.43
2023-02-05T00:05:37.733Z,7.13
2023-02-05T00:08:06.526Z,7.20
2023-02-05T00:10:35.461Z,6.50
2023-02-05T00:13:03.722Z,6.97
2023-02-05T00:15:34.173Z,6.40
2023-02-05T00:18:02.501Z,6.40
2023-02-05T00:20:31.036Z,7.20
2023-02-05T00:22:59.459Z,6.05
2023-02-05T00:25:29.049Z,6.50
2023-02-05T00:27:57.396Z,6.47
2023-02-05T00:30:25.925Z,7.47
2023-02-05T00:32:55.865Z,6.78
2023-02-05T00:35:24.669Z,6.50
2023-02-05T00:37:52.838Z,7.43
2023-02-05T00:40:21.411Z,7.18
2023-02-05T00:42:49.777Z,6.68
2023-02-05T00:45:18.489Z,6.45
2023-02-05T00:47:46.904Z,6.82
2023-02-05T00:50:18.487Z,6.65
2023-02-05T00:52:46.866Z,6.78
2023-02-05T00:55:15.597Z,7.15
2023-02-05T00:57:43.931Z,7.28
2023-02-05T01:00:13.612Z,7.22
2023-02-05T01:02:41.927Z,6.97
2023-02-05T01:05:11.086Z,6.57
2023-02-05T01:07:49.869Z,6.70
2023-02-05T01:10:18.442Z,5.53
2023-02-05T01:12:46.770Z,6.32
2023-02-05T01:15:15.498Z,6.28
2023-02-05T01:17:43.725Z,5.20
2023-02-05T01:20:14.537Z,5.90
2023-02-05T01:22:43.413Z,6.53
2023-02-05T01:25:13.532Z,6.05
2023-02-05T01:27:41.733Z,6.47
2023-02-05T01:30:12.617Z,6.38
2023-02-05T01:32:41.739Z,6.22
2023-02-05T01:35:10.872Z,5.75
2023-02-05T01:37:39.269Z,5.50
2023-02-05T01:40:08.417Z,5.80
2023-02-05T01:42:37.990Z,5.68
2023-02-05T01:45:43.370Z,5.75
2023-02-05T01:48:11.658Z,5.53
2023-02-05T01:50:43.843Z,5.47
2023-02-05T01:53:15.149Z,6.25
2023-02-05T01:55:46.936Z,5.93
2023-02-05T01:58:16.858Z,5.50
2023-02-05T02:00:45.528Z,6.30
2023-02-05T02:03:15.560Z,5.05
2023-02-05T02:05:44.175Z,5.37
2023-02-05T02:08:13.704Z,5.00
2023-02-05T02:10:44.313Z,5.55
2023-02-05T02:13:12.974Z,5.03
2023-02-05T02:15:43.037Z,5.43
2023-02-05T02:18:29.988Z,5.63
2023-02-05T02:21:42.937Z,5.40
2023-02-05T02:24:27.438Z,5.25
2023-02-05T02:27:04.427Z,5.35
2023-02-05T02:29:38.165Z,5.80
2023-02-05T02:32:12.575Z,5.72
2023-02-05T02:34:43.945Z,5.55
2023-02-05T02:37:16.364Z,6.40
2023-02-05T02:39:51.541Z,5.90
2023-02-05T02:42:24.772Z,6.15
2023-02-05T02:44:58.527Z,5.55
2023-02-05T02:47:29.916Z,5.43
2023-02-05T02:50:02.305Z,6.13
2023-02-05T02:52:35.012Z,5.38
2023-02-05T02:55:08.382Z,5.20
2023-02-05T02:57:39.405Z,6.57
2023-02-05T03:00:13.877Z,5.90
2023-02-05T03:02:42.776Z,6.93
2023-02-05T03:05:14.546Z,6.65
2023-02-05T03:07:45.333Z,6.68
2023-02-05T03:10:16.190Z,6.93
2023-02-05T03:12:44.956Z,8.05
2023-02-05T03:15:14.999Z,6.70
2023-02-05T03:17:44.101Z,6.10
2023-02-05T03:20:17.637Z,6.65
2023-02-05T03:22:46.126Z,6.03
2023-02-05T03:25:14.624Z,6.15
2023-02-05T03:27:43.404Z,6.30
2023-02-05T03:30:12.953Z,5.88
2023-02-05T03:32:55.705Z,6.85
2023-02-05T03:35:32.276Z,6.32
2023-02-05T03:38:09.138Z,5.80
2023-02-05T03:40:42.797Z,6.00
2023-02-05T03:43:15.238Z,5.60
2023-02-05T03:45:52.563Z,5.68
2023-02-05T03:48:41.498Z,7.47
2023-02-05T03:51:22.704Z,6.63
2023-02-05T03:54:00.601Z,7.22
2023-02-05T03:56:33.073Z,8.57
2023-02-05T03:59:03.212Z,8.13
2023-02-05T04:01:31.865Z,7.47
2023-02-05T04:04:02.775Z,9.00
2023-02-05T04:06:31.114Z,6.78
2023-02-05T04:08:59.756Z,7.35
2023-02-05T04:11:28.167Z,7.03
2023-02-05T04:13:56.734Z,7.03
2023-02-05T04:16:25.349Z,6.38
2023-02-05T04:18:53.807Z,6.57
2023-02-05T04:21:23.390Z,6.18
2023-02-05T04:23:52.143Z,7.18
2023-02-05T04:26:20.518Z,6.38
2023-02-05T04:28:49.022Z,7.57
2023-02-05T04:31:17.354Z,7.47
2023-02-05T04:33:46.006Z,6.95
2023-02-05T04:36:15.695Z,8.25
2023-02-05T04:38:45.504Z,7.68
2023-02-05T04:41:13.924Z,7.25
2023-02-05T04:43:42.532Z,7.97
2023-02-05T04:46:11.328Z,8.63
2023-02-05T04:48:40.614Z,7.45
2023-02-05T04:51:10.313Z,7.45
2023-02-05T04:53:39.584Z,7.55
2023-02-05T04:56:11.596Z,7.20
2023-02-05T04:58:40.704Z,8.48
2023-02-05T05:01:15.684Z,8.85
2023-02-05T05:03:44.999Z,10.05
2023-02-05T05:06:14.161Z,8.98
2023-02-05T05:08:43.133Z,9.18
2023-02-05T05:11:14.699Z,9.38
2023-02-05T05:13:44.436Z,9.27
2023-02-05T05:16:13.968Z,8.18
2023-02-05T05:18:42.842Z,8.60
2023-02-05T05:21:11.282Z,8.50
2023-02-05T05:23:40.315Z,8.60
2023-02-05T05:26:09.693Z,7.85
2023-02-05T05:28:39.983Z,8.02
2023-02-05T05:31:09.822Z,8.15
2023-02-05T05:33:38.929Z,8.20
2023-02-05T05:36:08.732Z,9.07
2023-02-05T05:38:37.566Z,8.98
2023-02-05T05:41:24.131Z,8.48
2023-02-05T05:43:55.433Z,7.05
2023-02-05T05:46:26.009Z,7.93
2023-02-05T05:48:55.852Z,7.97
2023-02-05T05:51:25.645Z,7.85
2023-02-05T05:53:54.301Z,8.02
2023-02-05T05:56:22.931Z,8.43
2023-02-05T05:58:53.303Z,9.25
2023-02-05T06:01:23.063Z,8.70
2023-02-05T06:03:52.237Z,9.50
2023-02-05T06:06:20.544Z,9.43
2023-02-05T06:08:49.209Z,9.75
2023-02-05T06:11:17.650Z,11.23
2023-02-05T06:13:46.633Z,9.60
2023-02-05T06:16:16.727Z,8.30
2023-02-05T06:18:45.248Z,9.73
2023-02-05T06:21:13.716Z,9.15
2023-02-05T06:23:42.333Z,8.73
2023-02-05T06:26:10.547Z,9.40
2023-02-05T06:28:39.203Z,9.23
2023-02-05T06:31:07.649Z,9.40
2023-02-05T06:33:37.779Z,9.55
2023-02-05T06:36:07.279Z,9.23
2023-02-05T06:38:35.924Z,30.33
2023-02-05T06:41:04.811Z,26.55
2023-02-05T06:43:33.386Z,11.20
2023-02-05T06:46:01.877Z,31.05
2023-02-05T06:48:30.860Z,19.80
2023-02-05T06:51:00.509Z,10.95
2023-02-05T06:53:29.234Z,11.95
2023-02-05T06:55:59.392Z,13.82
2023-02-05T06:58:28.286Z,15.35
2023-02-05T07:00:56.556Z,14.73
2023-02-05T07:03:25.953Z,12.23
2023-02-05T07:05:54.181Z,11.93
2023-02-05T07:08:24.171Z,12.05
2023-02-05T07:10:52.485Z,11.98
2023-02-05T07:13:21.011Z,17.83
2023-02-05T07:15:49.912Z,12.20
2023-02-05T07:18:18.501Z,22.98
2023-02-05T07:20:46.834Z,58.80
2023-02-05T07:23:15.659Z,29.98
2023-02-05T07:25:46.626Z,25.73
2023-02-05T07:30:43.828Z,11.52
2023-02-05T07:33:12.421Z,10.27
2023-02-05T07:35:40.741Z,9.30
2023-02-05T07:38:10.952Z,11.77
2023-02-05T07:40:39.477Z,11.00
2023-02-05T07:43:09.423Z,10.63
2023-02-05T07:45:37.798Z,11.48
2023-02-05T07:48:06.878Z,12.13
2023-02-05T07:50:35.964Z,12.05
2023-02-05T07:53:04.621Z,14.35
2023-02-05T07:55:33.149Z,22.10
2023-02-05T07:58:02.178Z,14.48
2023-02-05T08:00:32.394Z,34.78
2023-02-05T08:03:01.140Z,14.80
2023-02-05T08:05:30.373Z,33.53
2023-02-05T08:07:59.190Z,28.08
2023-02-05T08:10:27.692Z,22.58
2023-02-05T08:12:56.326Z,36.67
2023-02-05T08:15:24.900Z,32.03
2023-02-05T08:17:54.948Z,21.75
2023-02-05T08:20:23.412Z,32.38
2023-02-05T08:22:52.125Z,29.33
2023-02-05T08:25:20.760Z,17.98
2023-02-05T08:27:49.508Z,15.68
2023-02-05T08:30:21.729Z,11.90
2023-02-05T08:32:51.271Z,8.60
2023-02-05T08:35:20.911Z,9.52
2023-02-05T08:37:49.498Z,11.48
2023-02-05T08:40:18.228Z,10.45
2023-02-05T08:42:48.663Z,10.60
2023-02-05T08:45:17.462Z,46.00
2023-02-05T08:47:46.193Z,13.30
2023-02-05T08:50:15.789Z,10.52
2023-02-05T08:52:46.156Z,13.35
2023-02-05T08:55:15.473Z,14.98
2023-02-05T08:57:44.211Z,10.52
2023-02-05T09:00:13.845Z,10.18
2023-02-05T09:02:43.138Z,9.43
2023-02-05T09:05:12.027Z,12.20
2023-02-05T09:07:41.607Z,10.55
2023-02-05T09:10:12.582Z,10.93
2023-02-05T09:15:10.677Z,10.30
2023-02-05T09:17:39.250Z,11.80
2023-02-05T09:20:08.526Z,14.15
2023-02-05T09:22:38.734Z,10.88
2023-02-05T09:25:07.809Z,9.30
2023-02-05T09:27:37.715Z,8.75
2023-02-05T09:30:06.494Z,7.57
2023-02-05T09:32:35.397Z,9.07
2023-02-05T09:35:03.874Z,9.27
2023-02-05T09:37:32.526Z,8.18
2023-02-05T09:42:59.232Z,9.93
2023-02-05T09:45:38.835Z,10.70
2023-02-05T09:48:28.467Z,10.50
2023-02-05T09:50:58.261Z,12.63
2023-02-05T09:53:30.005Z,11.00
2023-02-05T09:55:59.716Z,10.65
2023-02-05T09:58:32.241Z,9.38
2023-02-05T10:01:03.403Z,6.18
2023-02-05T10:03:37.473Z,6.80
2023-02-05T10:06:14.754Z,7.82
2023-02-05T10:08:52.016Z,5.30
2023-02-05T10:11:24.823Z,5.97
2023-02-05T10:14:03.102Z,5.15
2023-02-05T10:17:12.170Z,5.68
2023-02-05T10:19:50.499Z,8.15
2023-02-05T10:22:24.781Z,6.80
2023-02-05T10:25:26.029Z,8.77
2023-02-05T10:27:59.414Z,9.90
2023-02-05T10:30:32.016Z,7.50
2023-02-05T10:33:02.335Z,7.10
2023-02-05T10:35:37.335Z,6.80
2023-02-05T10:38:11.839Z,6.32
2023-02-05T10:40:44.148Z,7.60
2023-02-05T10:43:20.500Z,7.82
2023-02-05T10:45:50.556Z,7.00
2023-02-05T10:48:36.478Z,6.70
2023-02-05T10:51:07.244Z,7.93
2023-02-05T10:53:36.892Z,8.25
2023-02-05T10:56:06.377Z,8.88
2023-02-05T10:58:40.208Z,11.13
2023-02-05T11:01:15.200Z,7.47
2023-02-05T11:03:49.702Z,7.95
2023-02-05T11:06:19.231Z,5.55
2023-02-05T11:08:47.560Z,6.93
2023-02-05T11:11:24.812Z,8.65
2023-02-05T11:13:55.821Z,8.25
2023-02-05T11:18:58.977Z,7.72
2023-02-05T11:21:48.298Z,7.75
2023-02-05T11:24:25.712Z,8.07
2023-02-05T11:27:29.434Z,6.55
2023-02-05T11:30:00.877Z,6.30
2023-02-05T11:32:40.221Z,6.97
2023-02-05T11:35:23.247Z,11.30
2023-02-05T11:38:01.573Z,11.40
2023-02-05T11:40:32.572Z,10.10
2023-02-05T11:45:35.701Z,8.98
2023-02-05T11:48:07.995Z,8.57
2023-02-05T11:50:36.743Z,8.70
2023-02-05T11:53:17.372Z,9.05
2023-02-05T11:55:46.036Z,18.90
2023-02-05T11:58:31.570Z,12.10
2023-02-05T12:01:06.867Z,9.07
2023-02-05T12:03:37.013Z,10.88
2023-02-05T12:06:17.136Z,10.68
2023-02-05T12:08:48.848Z,9.07
2023-02-05T12:12:04.306Z,8.60
2023-02-05T12:14:39.635Z,9.40
2023-02-05T12:17:19.264Z,8.18
2023-02-05T12:19:53.391Z,8.63
2023-02-05T12:22:30.306Z,9.18
2023-02-05T12:25:11.206Z,6.97
2023-02-05T12:27:51.290Z,13.68
2023-02-05T12:30:38.684Z,8.65
2023-02-05T12:33:40.242Z,7.97
2023-02-05T12:38:50.680Z,8.20
2023-02-05T12:41:27.609Z,7.35
2023-02-05T12:44:00.626Z,8.32
2023-02-05T12:46:47.841Z,14.95
2023-02-05T12:49:36.051Z,10.95
2023-02-05T12:52:18.834Z,7.50
2023-02-05T12:54:58.212Z,8.18
2023-02-05T12:57:30.462Z,7.80
2023-02-05T13:00:02.440Z,6.93
2023-02-05T13:02:35.986Z,6.05
2023-02-05T13:05:16.455Z,8.57
2023-02-05T13:07:48.799Z,7.95
2023-02-05T13:10:20.170Z,7.53
2023-02-05T13:15:20.553Z,7.88
2023-02-05T13:17:58.392Z,7.80
2023-02-05T13:20:43.619Z,6.38
2023-02-05T13:23:31.964Z,6.38
2023-02-05T13:26:18.796Z,7.97
2023-02-05T13:28:49.808Z,10.70
2023-02-05T13:31:23.078Z,8.80
2023-02-05T13:33:53.300Z,7.25
2023-02-05T13:36:43.929Z,6.60
2023-02-05T13:39:34.057Z,6.00
2023-02-05T13:42:16.870Z,7.25
2023-02-05T13:45:17.513Z,6.70
2023-02-05T13:48:08.290Z,7.95
2023-02-05T13:51:10.344Z,9.35
2023-02-05T13:53:48.452Z,9.05
2023-02-05T13:56:36.758Z,8.00
2023-02-05T13:59:06.816Z,7.28
2023-02-05T14:01:44.826Z,5.63
2023-02-05T14:04:21.645Z,7.75
2023-02-05T14:06:58.239Z,9.13
2023-02-05T14:09:32.403Z,10.70
2023-02-05T14:15:25.151Z,7.25
2023-02-05T14:17:55.964Z,7.07
2023-02-05T14:20:37.042Z,10.02
2023-02-05T14:26:10.497Z,6.82
2023-02-05T14:28:48.919Z,5.43
2023-02-05T14:31:50.379Z,8.15
2023-02-05T14:37:32.626Z,8.35
2023-02-05T14:40:24.565Z,7.60
2023-02-05T14:43:08.441Z,7.93
2023-02-05T14:45:44.211Z,10.57
2023-02-05T14:48:21.216Z,10.15
2023-02-05T14:51:02.373Z,10.27
2023-02-05T14:53:33.060Z,9.05
2023-02-05T14:56:02.284Z,9.68
2023-02-05T14:58:33.143Z,8.75
2023-02-05T15:01:42.004Z,8.15
2023-02-05T15:04:30.540Z,7.25
2023-02-05T15:07:01.218Z,8.10
2023-02-05T15:09:40.573Z,8.60
2023-02-05T15:12:50.147Z,9.80
2023-02-05T15:15:31.060Z,10.35
2023-02-05T15:18:04.745Z,10.85
2023-02-05T15:20:36.424Z,9.35
2023-02-05T15:23:19.523Z,8.40
2023-02-05T15:25:55.092Z,8.60
2023-02-05T15:28:28.981Z,8.55
2023-02-05T15:31:18.822Z,7.85
2023-02-05T15:33:54.817Z,9.77
2023-02-05T15:36:31.634Z,11.13
2023-02-05T15:39:08.792Z,9.65
2023-02-05T15:41:38.995Z,10.98
2023-02-05T15:44:21.593Z,11.55
2023-02-05T15:46:50.748Z,10.82
2023-02-05T15:49:19.450Z,13.07
2023-02-05T15:51:49.010Z,10.32
2023-02-05T15:54:21.289Z,9.40
2023-02-05T15:56:53.723Z,22.02
2023-02-05T15:59:25.284Z,12.50
2023-02-05T16:02:01.550Z,11.15
2023-02-05T16:04:32.384Z,18.17
2023-02-05T16:07:00.983Z,12.82
2023-02-05T16:09:31.793Z,13.40
2023-02-05T16:12:13.721Z,11.00
2023-02-05T16:14:43.879Z,9.95
2023-02-05T16:17:16.703Z,10.70
2023-02-05T16:19:49.614Z,10.80
2023-02-05T16:22:36.585Z,9.45
2023-02-05T16:25:09.217Z,9.05
2023-02-05T16:27:42.351Z,11.25
2023-02-05T16:30:19.005Z,9.90
2023-02-05T16:32:47.802Z,10.30
2023-02-05T16:35:24.593Z,12.45
2023-02-05T16:37:53.198Z,10.02
2023-02-05T16:40:32.025Z,11.18
2023-02-05T16:43:01.835Z,12.13
2023-02-05T16:45:31.538Z,12.40
2023-02-05T16:48:23.546Z,15.40
2023-02-05T16:50:53.947Z,12.68
2023-02-05T16:53:26.476Z,12.98
2023-02-05T16:55:58.547Z,13.25
2023-02-05T17:00:59.700Z,13.35
2023-02-05T17:03:30.717Z,14.15
2023-02-05T17:06:02.108Z,14.10
2023-02-05T17:08:33.280Z,12.85
2023-02-05T17:11:04.697Z,12.73
2023-02-05T17:13:38.776Z,11.48
2023-02-05T17:16:28.584Z,10.57
2023-02-05T17:19:00.593Z,10.30
2023-02-05T17:21:33.801Z,11.65
2023-02-05T17:24:04.890Z,10.30
2023-02-05T17:26:35.974Z,12.18
2023-02-05T17:29:07.634Z,9.85
2023-02-05T17:31:38.510Z,9.90
2023-02-05T17:34:07.642Z,10.68
2023-02-05T17:36:36.238Z,9.68
2023-02-05T17:39:05.076Z,9.88
2023-02-05T17:41:54.447Z,9.57
2023-02-05T17:44:24.315Z,11.05
2023-02-05T17:46:54.288Z,11.20
2023-02-05T17:49:23.063Z,11.23
2023-02-05T17:51:51.744Z,10.57
2023-02-05T17:54:23.070Z,26.77
2023-02-05T17:56:51.926Z,31.30
2023-02-05T17:59:21.745Z,24.13
2023-02-05T18:01:51.978Z,16.13
2023-02-05T18:04:20.689Z,8.85
2023-02-05T18:06:50.048Z,7.43
2023-02-05T18:09:20.122Z,8.23
2023-02-05T18:11:48.797Z,10.47
2023-02-05T18:14:17.147Z,9.88
2023-02-05T18:16:45.981Z,10.60
2023-02-05T18:19:15.966Z,9.38
2023-02-05T18:21:47.132Z,10.87
2023-02-05T18:24:15.517Z,17.27
2023-02-05T18:26:44.144Z,17.90
2023-02-05T18:29:12.505Z,15.90
2023-02-05T18:31:41.021Z,13.32
2023-02-05T18:34:09.438Z,12.88
2023-02-05T18:36:39.373Z,13.48
2023-02-05T18:39:09.864Z,14.95
2023-02-05T18:41:39.189Z,16.48
2023-02-05T18:44:07.456Z,21.02
2023-02-05T18:46:36.066Z,22.45
2023-02-05T18:49:04.440Z,21.90
2023-02-05T18:51:33.006Z,19.65
2023-02-05T18:54:02.963Z,13.32
2023-02-05T18:56:31.602Z,12.60
2023-02-05T18:59:01.120Z,11.55
2023-02-05T19:01:30.744Z,13.73
2023-02-05T19:04:02.280Z,12.07
2023-02-05T19:06:31.407Z,12.18
2023-02-05T19:09:00.624Z,12.98
2023-02-05T19:11:32.296Z,13.13
2023-02-05T19:14:02.918Z,12.35
2023-02-05T19:16:33.703Z,12.20
2023-02-05T19:19:02.389Z,11.95
2023-02-05T19:21:32.083Z,12.18
2023-02-05T19:24:05.531Z,13.55
2023-02-05T19:26:37.287Z,13.30
2023-02-05T19:29:07.978Z,13.75
2023-02-05T19:31:37.944Z,13.93
2023-02-05T19:34:06.696Z,15.55
2023-02-05T19:36:35.411Z,15.35
2023-02-05T19:39:05.848Z,15.32
2023-02-05T19:41:36.967Z,15.13
2023-02-05T19:44:07.558Z,14.43
2023-02-05T19:46:38.594Z,15.32
2023-02-05T19:49:11.757Z,15.98
2023-02-05T19:51:40.446Z,15.73
2023-02-05T19:54:08.744Z,15.48
2023-02-05T19:56:39.732Z,15.88
2023-02-05T19:59:08.506Z,15.43
2023-02-05T20:01:39.213Z,14.57
2023-02-05T20:04:10.219Z,13.57
2023-02-05T20:09:10.585Z,13.43
2023-02-05T20:11:41.741Z,14.18
2023-02-05T20:14:13.225Z,13.38
2023-02-05T20:16:42.449Z,12.93
2023-02-05T20:19:12.846Z,13.70
2023-02-05T20:21:41.585Z,15.00
2023-02-05T20:24:10.097Z,18.38
2023-02-05T20:26:40.548Z,22.65
2023-02-05T20:29:26.876Z,14.48
2023-02-05T20:31:57.713Z,15.07
2023-02-05T20:34:30.619Z,13.35
2023-02-05T20:37:00.734Z,13.70
2023-02-05T20:39:30.342Z,13.82
2023-02-05T20:42:00.814Z,13.82
2023-02-05T20:44:31.214Z,13.27
2023-02-05T20:46:59.840Z,13.68
2023-02-05T20:49:28.393Z,12.98
2023-02-05T20:51:57.169Z,14.25
2023-02-05T20:54:25.859Z,13.18
2023-02-05T20:56:57.122Z,13.88
2023-02-05T20:59:27.116Z,13.93
2023-02-05T21:01:56.584Z,14.55
2023-02-05T21:04:25.717Z,14.63
2023-02-05T21:06:54.665Z,14.65
2023-02-05T21:09:23.687Z,14.52
2023-02-05T21:11:55.745Z,14.27
2023-02-05T21:14:24.577Z,14.32
2023-02-05T21:16:54.907Z,14.45
2023-02-05T21:19:24.126Z,14.50
2023-02-05T21:21:53.086Z,14.95
2023-02-05T21:24:21.926Z,31.35
2023-02-05T21:26:51.022Z,22.40
2023-02-05T21:29:21.082Z,15.07
2023-02-05T21:31:53.094Z,18.58
2023-02-05T21:34:25.294Z,18.88
2023-02-05T21:36:55.138Z,16.00
2023-02-05T21:39:25.645Z,14.73
2023-02-05T21:41:54.807Z,14.25
2023-02-05T21:44:23.363Z,14.48
2023-02-05T21:46:53.379Z,13.45
2023-02-05T21:49:23.086Z,13.98
2023-02-05T21:51:53.419Z,15.50
2023-02-05T21:54:25.454Z,14.48
2023-02-05T21:56:55.094Z,14.38
2023-02-05T21:59:23.311Z,14.55
2023-02-05T22:01:52.272Z,15.65
2023-02-05T22:04:20.560Z,16.38
2023-02-05T22:06:51.744Z,16.13
2023-02-05T22:09:20.931Z,15.52
2023-02-05T22:11:50.641Z,15.30
2023-02-05T22:14:18.832Z,16.30
2023-02-05T22:16:47.451Z,14.82
2023-02-05T22:19:15.767Z,15.90
2023-02-05T22:21:44.735Z,14.73
2023-02-05T22:24:16.380Z,13.82
2023-02-05T22:26:45.946Z,13.93
2023-02-05T22:29:15.734Z,14.10
2023-02-05T22:31:45.468Z,13.85
2023-02-05T22:34:14.205Z,12.63
2023-02-05T22:36:43.694Z,13.35
2023-02-05T22:39:12.248Z,13.07
2023-02-05T22:41:43.064Z,13.35
2023-02-05T22:44:12.562Z,12.05
2023-02-05T22:46:42.634Z,12.77
2023-02-05T22:49:12.638Z,13.43
2023-02-05T22:51:41.686Z,13.00
2023-02-05T22:54:13.297Z,13.20
2023-02-05T22:56:43.119Z,14.93
2023-02-05T22:59:11.674Z,14.00
2023-02-05T23:01:40.349Z,13.55
2023-02-05T23:04:12.292Z,19.23
2023-02-05T23:06:42.835Z,22.00
2023-02-05T23:09:12.712Z,20.90
2023-02-05T23:11:46.113Z,19.75
2023-02-05T23:14:15.720Z,16.15
2023-02-05T23:16:46.829Z,15.35
2023-02-05T23:19:19.178Z,15.73
2023-02-05T23:21:48.800Z,15.63
2023-02-05T23:24:17.827Z,14.43
2023-02-05T23:26:50.968Z,15.27
2023-02-05T23:29:19.374Z,15.60
2023-02-05T23:31:48.321Z,14.38
2023-02-05T23:34:16.489Z,15.57
2023-02-05T23:36:44.957Z,16.05
2023-02-05T23:39:13.384Z,14.88
2023-02-05T23:41:41.838Z,15.13
2023-02-05T23:44:14.276Z,16.02
2023-02-05T23:46:43.762Z,15.38
2023-02-05T23:49:12.642Z,14.55
2023-02-05T23:51:42.185Z,14.05
2023-02-05T23:54:12.367Z,14.88
2023-02-05T23:56:41.242Z,10.73
2023-02-05T23:59:14.190Z,12.95
